createdAt,value
2018-11-13T00:13:42.838Z,76.50
2018-11-13T00:33:37.628Z,68.05
2018-11-13T00:53:25.273Z,76.87
2018-11-13T01:13:21.627Z,62.15
2018-11-13T01:33:03.324Z,62.65
2018-11-13T01:52:59.777Z,69.07
2018-11-13T02:12:54.989Z,53.20
2018-11-13T02:32:50.217Z,60.03
2018-11-13T02:52:45.308Z,63.52
2018-11-13T03:12:37.080Z,69.35
2018-11-13T03:32:25.808Z,62.83
2018-11-13T03:52:20.029Z,61.13
2018-11-13T04:12:13.375Z,60.92
2018-11-13T04:28:28.873Z,60.90
2018-11-13T04:48:18.934Z,61.20
2018-11-13T05:08:11.527Z,59.42
2018-11-13T05:28:03.883Z,61.88
2018-11-13T05:47:56.458Z,57.98
2018-11-13T06:07:37.083Z,63.00
2018-11-13T06:27:16.712Z,60.05
2018-11-13T06:47:04.209Z,57.80
2018-11-13T07:06:53.262Z,61.42
2018-11-13T07:26:42.927Z,76.72
2018-11-13T07:46:34.902Z,93.50
2018-11-13T08:06:13.506Z,79.82
2018-11-13T08:26:08.350Z,74.97
2018-11-13T08:46:04.181Z,64.25
2018-11-13T09:05:45.281Z,57.85
2018-11-13T09:25:30.576Z,63.77
2018-11-13T09:45:16.060Z,49.63
2018-11-13T10:05:04.955Z,37.23
2018-11-13T10:24:49.815Z,31.27
2018-11-13T10:44:34.524Z,30.30
2018-11-13T11:04:23.347Z,28.35
2018-11-13T11:24:03.470Z,24.82
2018-11-13T11:43:58.840Z,22.35
2018-11-13T12:03:37.060Z,22.30
2018-11-13T12:23:16.168Z,22.98
2018-11-13T12:43:03.323Z,22.30
2018-11-13T13:02:52.740Z,22.55
2018-11-13T13:22:45.541Z,22.30
2018-11-13T13:42:39.396Z,21.70
2018-11-13T14:02:34.247Z,22.77
2018-11-13T14:22:24.957Z,23.47
2018-11-13T14:42:19.814Z,26.75
2018-11-13T15:02:00.564Z,30.88
2018-11-13T15:21:54.347Z,30.48
2018-11-13T15:41:40.073Z,30.62
2018-11-13T16:01:25.141Z,29.67
2018-11-13T16:21:12.572Z,32.25
2018-11-13T16:41:00.208Z,36.85
2018-11-13T17:00:45.478Z,45.12
2018-11-13T17:20:36.874Z,42.13
2018-11-13T17:40:28.699Z,43.98
2018-11-13T18:00:28.440Z,47.17
2018-11-13T18:20:25.376Z,50.67
2018-11-13T18:40:13.194Z,56.68
2018-11-13T19:00:03.827Z,57.03
2018-11-13T19:19:58.998Z,52.75
2018-11-13T19:39:51.634Z,47.78
2018-11-13T19:59:35.293Z,49.13
2018-11-13T20:19:20.053Z,45.45
2018-11-13T20:39:14.833Z,49.85
2018-11-13T20:59:07.624Z,45.98
2018-11-13T21:19:02.382Z,40.03
2018-11-13T21:38:43.076Z,76.20
2018-11-13T21:58:30.967Z,70.65
2018-11-13T22:18:26.813Z,68.75
2018-11-13T22:38:13.426Z,65.45
2018-11-13T22:58:04.214Z,56.63
2018-11-13T23:17:57.136Z,63.90
2018-11-13T23:37:48.334Z,57.43
2018-11-13T23:57:41.763Z,64.95
